Athens Township, Pennsylvania
Current Conditions -  °F | °C
As of 9:56 AM on Friday 19 Dec 2014 (Local Time) from KBGM Reporting Station
Light Snow Light Snow  
Wind Chill: 11°   Ceiling: 900
Heat Index: 22°   Visibility: 0.75mi
Dew Point: 19°   Wind: 10mph
Humidity: 89%   Direction: 320°NW
Pressure: 30.06"   Gusts: NA
Location:  41.9771°N, 76.4144°W
Report Text: KBGM 191456Z 32009KT 3/4SM -SN BR BKN009 OVC016 M06/M07 A3006 RMK AO2 TWR VIS 1 P0000 T10561072 RVRNO
Loading
Personal Weather Stations






























Interactive Weather Map New forecast layout! Learn more

10-Day Weather Forecast

Advertisements
Track Severe Weather on mobile